Time;durP1;ratioP1;P1;durP2;ratioP2;P2;SDS_P1;SDS_P2;PMS_P1;PMS_P2;Temp;Humidity;BMP_temperature;BMP_pressure;BME280_temperature;BME280_humidity;BME280_pressure;Samples;Min_cycle;Max_cycle;Signal;HPM_P1;HPM_P2
2021/12/18 00:01:05;;;;;;;0.80;0.80;;;18.90;60.20;;;;;;5012428;28;20448;-74
2021/12/18 00:03:31;;;;;;;0.77;0.77;;;18.80;60.10;;;;;;4981859;28;20485;-74
2021/12/18 00:05:56;;;;;;;0.80;0.75;;;18.80;60.10;;;;;;4992660;28;20081;-74
2021/12/18 00:08:22;;;;;;;0.77;0.77;;;18.80;60.10;;;;;;4975421;28;20085;-74
2021/12/18 00:10:48;;;;;;;1.75;0.93;;;18.90;60.30;;;;;;4991745;28;20038;-74
2021/12/18 00:13:13;;;;;;;2.30;0.80;;;18.80;60.10;;;;;;4992911;28;20473;-75
2021/12/18 00:15:39;;;;;;;0.88;0.88;;;18.80;60.20;;;;;;4991486;28;20023;-75
2021/12/18 00:18:05;;;;;;;0.70;0.70;;;18.80;60.20;;;;;;4991037;28;20026;-75
2021/12/18 00:20:31;;;;;;;0.80;0.80;;;18.80;60.20;;;;;;4991581;28;20023;-74
2021/12/18 00:22:56;;;;;;;0.95;0.80;;;18.80;60.20;;;;;;4975495;28;20465;-74
2021/12/18 00:25:22;;;;;;;0.90;0.90;;;18.80;60.30;;;;;;4992845;28;20023;-74
2021/12/18 00:27:48;;;;;;;0.75;0.75;;;18.80;60.20;;;;;;4975132;28;20037;-74
2021/12/18 00:30:14;;;;;;;1.35;0.80;;;18.80;60.30;;;;;;4991311;28;20033;-75
2021/12/18 00:32:39;;;;;;;1.10;1.00;;;18.80;60.30;;;;;;4975012;28;20023;-74
2021/12/18 00:35:05;;;;;;;1.63;0.80;;;18.80;60.30;;;;;;4994249;28;20031;-73
2021/12/18 00:37:31;;;;;;;0.82;0.82;;;18.80;60.30;;;;;;4979138;28;20424;-73
2021/12/18 00:39:59;;;;;;;0.90;0.90;;;18.80;60.40;;;;;;4978751;28;20105;-73
2021/12/18 00:45:04;;;;;;;1.13;1.00;;;18.80;60.50;;;;;;5006147;28;20034;-73
2021/12/18 00:47:29;;;;;;;0.90;0.85;;;18.80;60.50;;;;;;5014807;28;20062;-73
2021/12/18 00:49:55;;;;;;;0.80;0.80;;;18.80;60.50;;;;;;5014510;28;20046;-73
2021/12/18 00:52:20;;;;;;;1.50;0.80;;;18.80;60.50;;;;;;5015607;28;20084;-73
2021/12/18 00:54:46;;;;;;;0.93;0.93;;;18.70;60.50;;;;;;5014412;28;20072;-73
2021/12/18 00:57:12;;;;;;;2.13;1.17;;;18.70;60.50;;;;;;4998300;28;20034;-73
2021/12/18 00:59:37;;;;;;;0.90;0.90;;;18.70;60.50;;;;;;5014108;28;20022;-74
2021/12/18 01:02:03;;;;;;;0.82;0.70;;;18.70;60.50;;;;;;5014125;28;20391;-74
2021/12/18 01:04:29;;;;;;;0.90;0.90;;;18.70;60.60;;;;;;4997781;28;20447;-74
2021/12/18 01:06:55;;;;;;;0.85;0.85;;;18.70;60.50;;;;;;5015313;28;20054;-74
2021/12/18 01:09:29;;;;;;;0.70;0.70;;;18.70;60.60;;;;;;5014401;28;20034;-74
2021/12/18 01:11:55;;;;;;;0.80;0.80;;;18.70;61.60;;;;;;5014157;28;20033;-74
2021/12/18 01:14:54;;;;;;;0.73;0.70;;;18.70;60.60;;;;;;5013908;28;20030;-74
2021/12/18 01:25:05;;;;;;;0.60;0.60;;;18.70;60.70;;;;;;5000457;28;20072;-74
2021/12/18 01:27:31;;;;;;;0.75;0.75;;;18.70;60.80;;;;;;5014083;28;20025;-74
2021/12/18 01:29:56;;;;;;;0.85;0.85;;;18.70;60.70;;;;;;5013545;28;20037;-74
2021/12/18 01:32:23;;;;;;;0.65;0.65;;;18.70;60.70;;;;;;5015134;28;20499;-74
2021/12/18 01:34:48;;;;;;;0.80;0.80;;;18.70;60.70;;;;;;5014923;28;20030;-74
2021/12/18 01:37:14;;;;;;;0.82;0.82;;;18.70;60.80;;;;;;5014724;28;20467;-74
2021/12/18 01:39:41;;;;;;;0.80;0.80;;;18.70;60.80;;;;;;5013826;28;20022;-74
2021/12/18 01:42:46;;;;;;;0.80;0.80;;;18.70;60.80;;;;;;5013416;28;20030;-74
2021/12/18 01:52:44;;;;;;;0.60;0.60;;;18.60;60.80;;;;;;5013788;28;20045;-74
2021/12/18 01:55:09;;;;;;;0.70;0.70;;;18.60;60.90;;;;;;4996878;28;20479;-74
2021/12/18 01:57:35;;;;;;;0.95;0.90;;;18.60;60.90;;;;;;4996761;28;20500;-74
2021/12/18 02:00:01;;;;;;;1.05;0.85;;;18.60;61.00;;;;;;5013209;28;20050;-74
2021/12/18 02:02:27;;;;;;;0.90;0.70;;;18.60;60.90;;;;;;5009194;28;20546;-74
2021/12/18 02:04:52;;;;;;;1.08;0.98;;;18.60;60.90;;;;;;4994717;28;20527;-73
2021/12/18 02:07:18;;;;;;;0.68;0.68;;;18.60;60.90;;;;;;4993403;28;20046;-74
2021/12/18 02:10:02;;;;;;;1.30;0.70;;;18.60;61.00;;;;;;4994665;28;20030;-73
2021/12/18 02:13:23;;;;;;;0.70;0.70;;;18.60;61.00;;;;;;4993523;28;20508;-73
2021/12/18 02:20:47;;;;;;;0.70;0.70;;;18.60;61.10;;;;;;4993555;28;20077;-74
2021/12/18 02:23:14;;;;;;;0.60;0.60;;;18.60;62.20;;;;;;4993097;28;20022;-74
2021/12/18 02:25:39;;;;;;;0.70;0.70;;;18.60;61.10;;;;;;4993319;28;20026;-74
2021/12/18 02:28:15;;;;;;;0.80;0.80;;;18.60;61.20;;;;;;4992979;28;20040;-74
2021/12/18 02:30:42;;;;;;;0.70;0.70;;;18.60;61.20;;;;;;4993389;28;20023;-74
2021/12/18 02:33:07;;;;;;;1.67;0.60;;;18.60;61.20;;;;;;4976690;28;20064;-73
2021/12/18 02:35:41;;;;;;;0.63;0.63;;;18.60;61.20;;;;;;4993156;28;20058;-74
2021/12/18 02:38:13;;;;;;;0.80;0.80;;;18.60;61.20;;;;;;4977676;28;20117;-74
2021/12/18 02:43:34;;;;;;;0.77;0.77;;;18.60;61.20;;;;;;4915132;29;20063;-74
2021/12/18 02:46:00;;;;;;;0.80;0.80;;;18.60;61.40;;;;;;4933264;29;20127;-74
2021/12/18 02:48:29;;;;;;;0.60;0.60;;;18.60;61.40;;;;;;4918119;29;20114;-74
2021/12/18 02:50:56;;;;;;;0.70;0.70;;;18.60;61.40;;;;;;4918113;29;20040;-74
2021/12/18 02:53:22;;;;;;;0.90;0.90;;;18.60;61.30;;;;;;4918102;29;20107;-74
2021/12/18 02:56:03;;;;;;;0.85;0.85;;;18.60;61.30;;;;;;4917649;29;20514;-74
2021/12/18 02:58:29;;;;;;;0.60;0.60;;;18.60;61.30;;;;;;4917756;29;20481;-74
2021/12/18 03:00:56;;;;;;;0.82;0.82;;;18.60;61.40;;;;;;4917767;29;20043;-74
2021/12/18 03:03:25;;;;;;;0.65;0.65;;;18.60;61.30;;;;;;4901797;29;20119;-74
2021/12/18 03:06:11;;;;;;;0.60;0.60;;;18.60;61.40;;;;;;4933459;29;20047;-73
2021/12/18 03:08:54;;;;;;;0.70;0.70;;;18.60;61.40;;;;;;4933693;29;20410;-73
2021/12/18 03:24:58;;;;;;;0.70;0.70;;;18.60;61.50;;;;;;4992389;28;20523;-74
2021/12/18 03:27:24;;;;;;;;;;;18.60;61.60;;;;;;4992737;28;20022;-74
2021/12/18 03:29:50;;;;;;;0.70;0.70;;;18.50;61.70;;;;;;5008296;28;19906;-74
2021/12/18 03:32:16;;;;;;;0.85;0.85;;;18.50;61.80;;;;;;4975780;28;20038;-74
2021/12/18 03:34:42;;;;;;;0.70;0.70;;;18.50;61.80;;;;;;4976108;28;20038;-74
2021/12/18 03:37:07;;;;;;;0.60;0.60;;;18.50;61.70;;;;;;4959686;28;20026;-74
2021/12/18 03:39:33;;;;;;;0.73;0.73;;;18.50;62.70;;;;;;4975656;28;20400;-74
2021/12/18 03:41:59;;;;;;;0.82;0.77;;;18.50;61.70;;;;;;4991811;28;20116;-74
2021/12/18 03:44:24;;;;;;;0.88;0.88;;;18.50;61.80;;;;;;4991660;28;20173;-74
2021/12/18 03:46:50;;;;;;;0.70;0.70;;;18.60;61.80;;;;;;4991895;28;20135;-74
2021/12/18 03:49:16;;;;;;;0.70;0.70;;;18.60;61.70;;;;;;4975692;28;20022;-74
2021/12/18 03:51:41;;;;;;;0.70;0.70;;;18.50;61.80;;;;;;4993176;28;20416;-74
2021/12/18 03:54:07;;;;;;;0.68;0.68;;;18.60;61.80;;;;;;4992642;28;20022;-73
2021/12/18 03:56:33;;;;;;;0.70;0.70;;;18.60;61.80;;;;;;4991665;28;20052;-74
2021/12/18 03:58:58;;;;;;;0.80;0.80;;;18.60;61.80;;;;;;4975435;28;20058;-73
2021/12/18 04:01:24;;;;;;;0.65;0.60;;;18.60;61.80;;;;;;4975731;28;20022;-73
2021/12/18 04:03:50;;;;;;;0.73;0.65;;;18.60;61.80;;;;;;4990751;28;20101;-73
2021/12/18 04:06:16;;;;;;;0.52;0.52;;;18.60;61.80;;;;;;5010882;28;20080;-73
2021/12/18 04:08:42;;;;;;;0.70;0.70;;;18.60;61.90;;;;;;5011924;28;20064;-73
2021/12/18 04:11:08;;;;;;;0.70;0.70;;;18.60;61.90;;;;;;5015183;28;20058;-73
2021/12/18 04:13:33;;;;;;;0.65;0.65;;;18.60;61.90;;;;;;4999077;28;20112;-73
2021/12/18 04:15:59;;;;;;;1.00;0.70;;;18.60;61.90;;;;;;5016618;28;20029;-73
2021/12/18 04:18:24;;;;;;;0.60;0.60;;;18.50;62.00;;;;;;5015023;28;20530;-73
2021/12/18 04:20:50;;;;;;;0.70;0.70;;;18.60;61.90;;;;;;5015273;28;20084;-73
2021/12/18 04:23:16;;;;;;;0.80;0.80;;;18.60;61.90;;;;;;5015829;28;20057;-74
2021/12/18 04:25:41;;;;;;;0.70;0.70;;;18.60;61.90;;;;;;5016446;28;20112;-74
2021/12/18 04:28:07;;;;;;;0.70;0.70;;;18.60;62.00;;;;;;4998674;28;20026;-74
2021/12/18 04:30:33;;;;;;;0.60;0.60;;;18.60;62.00;;;;;;4998662;28;20026;-74
2021/12/18 04:32:59;;;;;;;0.50;0.50;;;18.60;62.00;;;;;;5015017;28;20032;-74
2021/12/18 04:35:24;;;;;;;0.70;0.70;;;18.60;62.00;;;;;;4998556;28;20030;-74
2021/12/18 04:37:50;;;;;;;0.80;0.80;;;18.50;62.00;;;;;;5015624;28;20026;-74
2021/12/18 04:40:15;;;;;;;0.70;0.70;;;18.60;62.10;;;;;;5014981;28;20112;-74
2021/12/18 04:42:41;;;;;;;0.63;0.63;;;18.60;62.10;;;;;;5014621;28;20101;-74
2021/12/18 04:45:07;;;;;;;0.70;0.70;;;18.50;62.00;;;;;;5015670;28;20087;-74
2021/12/18 04:47:33;;;;;;;0.82;0.82;;;18.50;62.10;;;;;;4998498;28;20488;-74
2021/12/18 04:49:58;;;;;;;0.88;0.88;;;18.50;62.10;;;;;;4998584;28;20034;-74
2021/12/18 04:52:24;;;;;;;0.50;0.50;;;18.50;62.10;;;;;;4997885;28;20148;-74
2021/12/18 04:54:50;;;;;;;0.75;0.75;;;18.50;62.10;;;;;;4982124;28;20034;-74
2021/12/18 04:57:16;;;;;;;0.70;0.70;;;18.50;62.10;;;;;;4998092;28;20350;-74
2021/12/18 04:59:44;;;;;;;0.68;0.68;;;18.50;62.20;;;;;;5014492;28;20084;-73
2021/12/18 05:02:16;;;;;;;0.73;0.73;;;18.50;62.20;;;;;;5012633;28;20101;-73
2021/12/18 05:04:42;;;;;;;0.85;0.70;;;18.50;62.20;;;;;;4994863;28;20026;-73
2021/12/18 05:07:10;;;;;;;0.63;0.63;;;18.50;62.20;;;;;;4994158;28;20588;-73
2021/12/18 05:09:36;;;;;;;0.68;0.68;;;18.60;62.30;;;;;;4978859;28;20031;-74
2021/12/18 05:12:02;;;;;;;0.73;0.73;;;18.50;62.30;;;;;;4995709;28;20471;-74
2021/12/18 05:14:28;;;;;;;0.77;0.77;;;18.50;62.30;;;;;;4995586;28;20191;-74
2021/12/18 05:16:53;;;;;;;0.60;0.60;;;18.50;62.30;;;;;;4978316;28;20030;-74
2021/12/18 05:19:20;;;;;;;0.70;0.70;;;18.50;62.30;;;;;;4994363;28;20033;-73
2021/12/18 05:21:46;;;;;;;0.70;0.60;;;18.50;62.30;;;;;;4994174;28;20018;-74
2021/12/18 05:24:11;;;;;;;0.70;0.70;;;18.50;62.30;;;;;;4994358;28;20084;-73
2021/12/18 05:26:37;;;;;;;0.80;0.80;;;18.50;62.30;;;;;;4994387;28;20027;-73
2021/12/18 05:29:03;;;;;;;0.70;0.70;;;18.50;62.40;;;;;;4994285;28;20122;-73
2021/12/18 05:31:28;;;;;;;0.57;0.57;;;18.50;62.40;;;;;;4994179;28;20018;-74
2021/12/18 05:33:58;;;;;;;0.77;0.77;;;18.50;62.40;;;;;;4994244;28;20041;-73
2021/12/18 05:36:39;;;;;;;0.95;0.75;;;18.50;62.40;;;;;;4993737;28;20046;-73
2021/12/18 05:39:09;;;;;;;0.73;0.73;;;18.50;62.50;;;;;;4980101;28;20022;-73
2021/12/18 05:41:35;;;;;;;0.70;0.70;;;18.50;62.50;;;;;;4994125;28;20034;-73
2021/12/18 05:44:01;;;;;;;0.60;0.60;;;18.50;62.50;;;;;;4996912;28;20412;-73
2021/12/18 05:46:27;;;;;;;0.65;0.65;;;18.50;62.50;;;;;;5013267;28;20026;-73
2021/12/18 05:48:52;;;;;;;0.65;0.65;;;18.50;62.50;;;;;;5013609;28;20126;-73
2021/12/18 05:51:18;;;;;;;0.68;0.68;;;18.50;62.70;;;;;;4994155;28;20516;-73
2021/12/18 05:53:44;;;;;;;0.90;0.90;;;18.50;62.60;;;;;;5002158;28;20033;-74
2021/12/18 05:56:10;;;;;;;1.15;1.10;;;18.50;62.60;;;;;;5002080;28;20101;-73
2021/12/18 05:58:35;;;;;;;0.70;0.70;;;18.50;62.60;;;;;;4985089;28;20363;-73
2021/12/18 06:01:01;;;;;;;1.00;0.98;;;18.50;62.60;;;;;;5003523;28;20029;-73
2021/12/18 06:03:27;;;;;;;0.80;0.80;;;18.50;62.60;;;;;;5001320;28;20026;-73
2021/12/18 06:05:52;;;;;;;0.80;0.80;;;18.50;62.70;;;;;;4993173;28;20049;-73
2021/12/18 06:08:18;;;;;;;0.88;0.75;;;18.50;62.70;;;;;;5003070;28;20022;-73
2021/12/18 06:10:44;;;;;;;2.88;0.90;;;18.50;62.70;;;;;;5004082;28;20503;-73
2021/12/18 06:13:09;;;;;;;0.60;0.60;;;18.50;62.70;;;;;;5004160;28;20440;-73
2021/12/18 06:15:35;;;;;;;0.82;0.82;;;18.50;62.70;;;;;;5002428;28;20026;-74
2021/12/18 06:18:01;;;;;;;0.70;0.70;;;18.50;62.70;;;;;;5001988;28;20022;-73
2021/12/18 06:20:27;;;;;;;1.05;0.98;;;18.50;62.80;;;;;;4992142;28;20019;-73
2021/12/18 06:22:53;;;;;;;0.88;0.80;;;18.50;62.70;;;;;;5001046;28;20014;-73
2021/12/18 06:25:19;;;;;;;1.00;0.80;;;18.50;62.70;;;;;;4985237;28;20084;-73
2021/12/18 06:27:44;;;;;;;0.95;0.95;;;18.50;62.80;;;;;;5003216;28;20029;-73
2021/12/18 06:30:11;;;;;;;0.73;0.73;;;18.50;62.80;;;;;;4991366;28;20029;-73
2021/12/18 06:32:37;;;;;;;0.82;0.80;;;18.50;62.80;;;;;;4992763;28;20575;-73
2021/12/18 06:35:03;;;;;;;0.80;0.70;;;18.50;62.80;;;;;;5001438;28;20029;-74
2021/12/18 06:37:28;;;;;;;0.90;0.90;;;18.50;62.80;;;;;;5001456;28;20064;-73
2021/12/18 06:39:54;;;;;;;0.80;0.80;;;18.50;62.80;;;;;;4993040;28;20022;-73
2021/12/18 06:42:20;;;;;;;0.70;0.70;;;18.50;62.90;;;;;;5001108;28;20030;-73
2021/12/18 06:44:45;;;;;;;0.80;0.80;;;18.50;62.90;;;;;;5003430;28;20499;-73
2021/12/18 06:47:11;;;;;;;1.52;0.70;;;18.50;63.00;;;;;;5011344;28;20030;-73
2021/12/18 06:49:37;;;;;;;0.80;0.80;;;18.50;62.90;;;;;;4985520;28;20088;-73
2021/12/18 06:52:02;;;;;;;0.82;0.82;;;18.50;62.90;;;;;;5006942;28;20030;-73
2021/12/18 06:54:28;;;;;;;0.95;0.95;;;18.50;62.90;;;;;;4997082;28;20034;-73
2021/12/18 06:56:54;;;;;;;1.02;0.80;;;18.50;63.00;;;;;;5007839;28;20033;-73
2021/12/18 06:59:19;;;;;;;0.88;0.88;;;18.50;63.00;;;;;;5000653;28;20025;-74
2021/12/18 07:01:45;;;;;;;1.75;0.85;;;18.50;63.00;;;;;;5000990;28;20026;-74
2021/12/18 07:04:11;;;;;;;0.85;0.80;;;18.50;63.00;;;;;;5010533;28;20022;-73
2021/12/18 07:06:36;;;;;;;1.35;1.02;;;18.50;63.00;;;;;;5011305;28;20538;-74
2021/12/18 07:09:02;;;;;;;0.60;0.60;;;18.50;63.00;;;;;;4995272;28;20025;-74
2021/12/18 07:11:28;;;;;;;1.02;0.77;;;18.50;63.00;;;;;;5012049;28;20029;-74
2021/12/18 07:13:54;;;;;;;0.73;0.73;;;18.50;63.10;;;;;;5011780;28;20033;-74
2021/12/18 07:16:20;;;;;;;0.70;0.70;;;18.40;63.00;;;;;;4995415;28;20026;-73
2021/12/18 07:18:45;;;;;;;1.67;0.82;;;18.50;63.10;;;;;;5011429;28;20412;-74
2021/12/18 07:21:11;;;;;;;0.80;0.77;;;18.50;63.10;;;;;;5011912;28;20400;-74
2021/12/18 07:23:36;;;;;;;0.98;0.98;;;18.50;63.10;;;;;;4995413;28;20030;-73
2021/12/18 07:26:02;;;;;;;0.80;0.77;;;18.50;63.10;;;;;;4995543;28;20029;-73
2021/12/18 07:28:28;;;;;;;0.80;0.80;;;18.50;63.10;;;;;;5012794;28;20093;-74
2021/12/18 07:30:53;;;;;;;0.70;0.70;;;18.50;63.10;;;;;;5011789;28;20028;-73
2021/12/18 07:33:19;;;;;;;1.23;0.73;;;18.50;63.20;;;;;;4994382;28;20034;-74
2021/12/18 07:35:45;;;;;;;0.75;0.75;;;18.40;63.10;;;;;;4993860;28;20551;-73
2021/12/18 07:38:11;;;;;;;0.77;0.77;;;18.40;63.10;;;;;;5011576;28;20018;-73
2021/12/18 07:40:37;;;;;;;0.80;0.80;;;18.40;63.20;;;;;;5012572;28;20404;-73
2021/12/18 07:43:03;;;;;;;0.80;0.80;;;18.40;63.20;;;;;;5010890;28;20022;-73
2021/12/18 07:45:33;;;;;;;0.88;0.73;;;18.40;63.20;;;;;;4994557;28;20569;-74
2021/12/18 07:47:58;;;;;;;0.80;0.80;;;18.50;63.20;;;;;;5011340;28;20030;-74
2021/12/18 07:50:24;;;;;;;0.70;0.70;;;18.40;63.20;;;;;;5009388;28;20115;-73
2021/12/18 07:52:50;;;;;;;1.42;0.80;;;18.40;63.20;;;;;;5009390;28;20030;-73
2021/12/18 07:55:16;;;;;;;1.15;0.90;;;18.40;63.20;;;;;;5009344;28;20089;-72
2021/12/18 07:57:42;;;;;;;0.93;0.93;;;18.40;63.30;;;;;;5006715;28;20057;-73
2021/12/18 08:00:10;;;;;;;1.30;1.20;;;18.40;63.30;;;;;;4992042;28;20084;-73
2021/12/18 08:02:35;;;;;;;1.40;1.30;;;18.40;63.20;;;;;;4990999;28;20029;-73
2021/12/18 08:05:01;;;;;;;1.38;1.27;;;18.40;63.10;;;;;;5009756;28;20014;-73
2021/12/18 08:07:27;;;;;;;1.52;1.42;;;18.40;63.10;;;;;;5009732;28;20039;-73
2021/12/18 08:09:52;;;;;;;1.52;1.42;;;18.40;63.10;;;;;;5008076;28;20037;-73
2021/12/18 08:12:18;;;;;;;1.60;1.50;;;18.40;64.00;;;;;;5008801;28;20022;-73
2021/12/18 08:14:43;;;;;;;1.40;1.30;;;18.40;63.00;;;;;;5007689;28;20029;-73
2021/12/18 08:17:09;;;;;;;1.50;1.40;;;18.40;63.00;;;;;;5008968;28;20414;-73
2021/12/18 08:19:35;;;;;;;1.40;1.30;;;18.40;63.00;;;;;;5002872;28;20019;-73
2021/12/18 08:22:01;;;;;;;1.52;1.42;;;18.40;63.00;;;;;;5002763;28;20096;-73
2021/12/18 08:24:26;;;;;;;1.40;1.30;;;18.40;63.00;;;;;;5003937;28;20033;-73
2021/12/18 08:26:52;;;;;;;1.35;1.25;;;18.40;62.90;;;;;;5000772;28;20049;-73
2021/12/18 08:29:18;;;;;;;1.50;1.40;;;18.40;63.00;;;;;;4982656;28;20026;-73
2021/12/18 08:31:43;;;;;;;1.30;1.20;;;18.40;62.90;;;;;;5000175;28;20026;-73
2021/12/18 08:34:09;;;;;;;1.40;1.30;;;18.40;64.00;;;;;;5002647;28;20026;-73
2021/12/18 08:36:35;;;;;;;1.40;1.30;;;18.40;63.00;;;;;;5002209;28;20492;-74
2021/12/18 08:39:00;;;;;;;1.30;1.20;;;18.40;62.90;;;;;;4999269;28;20101;-73
2021/12/18 08:41:27;;;;;;;1.52;1.42;;;18.40;62.90;;;;;;4999344;28;20018;-73
2021/12/18 08:43:53;;;;;;;1.65;1.55;;;18.40;64.00;;;;;;4999850;28;20026;-73
2021/12/18 08:46:18;;;;;;;2.05;1.50;;;18.40;63.00;;;;;;4997163;28;20028;-73
2021/12/18 08:48:44;;;;;;;1.77;1.67;;;18.40;62.90;;;;;;5000971;28;20026;-73
2021/12/18 08:51:10;;;;;;;1.52;1.42;;;18.40;62.90;;;;;;4998956;28;20054;-73
2021/12/18 08:53:35;;;;;;;1.52;1.42;;;18.40;62.90;;;;;;4982791;28;20026;-73
2021/12/18 08:56:01;;;;;;;1.60;1.50;;;18.40;63.00;;;;;;4972102;28;20068;-74
2021/12/18 08:58:27;;;;;;;1.42;1.33;;;18.40;63.00;;;;;;5005692;28;20022;-73
2021/12/18 09:00:52;;;;;;;2.25;1.30;;;18.40;63.00;;;;;;5005365;28;20022;-73
2021/12/18 09:03:18;;;;;;;1.50;1.40;;;18.40;63.00;;;;;;5003283;28;20022;-73
2021/12/18 09:05:44;;;;;;;1.50;1.40;;;18.40;63.00;;;;;;4988550;28;20049;-73
2021/12/18 09:08:09;;;;;;;1.10;1.10;;;18.40;63.00;;;;;;4986113;28;20033;-73
2021/12/18 09:10:35;;;;;;;1.30;1.20;;;18.40;63.00;;;;;;5002153;28;20366;-73
2021/12/18 09:13:01;;;;;;;1.52;1.42;;;18.40;63.00;;;;;;5005700;28;20023;-75
2021/12/18 09:15:27;;;;;;;1.15;1.10;;;18.40;63.00;;;;;;5005747;28;20014;-74
2021/12/18 09:17:53;;;;;;;1.48;1.38;;;18.40;63.00;;;;;;5004855;28;20021;-74
2021/12/18 09:20:18;;;;;;;1.40;1.30;;;18.40;63.00;;;;;;4969714;28;20045;-74
2021/12/18 09:22:44;;;;;;;1.30;1.20;;;18.40;63.00;;;;;;4986093;28;20034;-74
2021/12/18 09:25:10;;;;;;;1.38;1.27;;;18.40;63.00;;;;;;5005359;28;20392;-74
2021/12/18 09:27:36;;;;;;;1.40;1.20;;;18.40;63.00;;;;;;5005261;28;20026;-74
2021/12/18 09:30:04;;;;;;;1.50;1.40;;;18.40;63.00;;;;;;5002693;28;20022;-74
2021/12/18 09:32:30;;;;;;;1.20;1.10;;;18.40;63.00;;;;;;5003139;28;20029;-74
2021/12/18 09:34:55;;;;;;;1.20;1.10;;;18.40;63.00;;;;;;5003069;28;20031;-74
2021/12/18 09:37:21;;;;;;;1.27;1.20;;;18.40;63.00;;;;;;5005077;28;20452;-73
2021/12/18 09:39:47;;;;;;;1.35;1.25;;;18.40;63.10;;;;;;5005797;28;20030;-73
2021/12/18 09:42:12;;;;;;;1.52;1.20;;;18.40;63.10;;;;;;5001461;28;20030;-73
2021/12/18 09:44:38;;;;;;;1.25;1.08;;;18.40;63.10;;;;;;5009489;28;20050;-73
2021/12/18 09:47:04;;;;;;;1.42;1.33;;;18.40;63.10;;;;;;4986127;28;20042;-74
2021/12/18 09:49:30;;;;;;;1.10;1.10;;;18.40;63.10;;;;;;5002072;28;20239;-73
2021/12/18 09:51:55;;;;;;;0.90;0.90;;;18.40;63.10;;;;;;5003473;28;20453;-74
2021/12/18 09:54:23;;;;;;;1.10;1.10;;;18.40;63.10;;;;;;5006795;28;20022;-73
2021/12/18 09:56:49;;;;;;;1.00;1.00;;;18.40;63.10;;;;;;4988656;28;20030;-73
2021/12/18 09:59:14;;;;;;;0.98;0.90;;;18.40;63.10;;;;;;4997713;28;20030;-73
2021/12/18 10:01:40;;;;;;;1.25;1.15;;;18.40;63.10;;;;;;5006687;28;20030;-73
2021/12/18 10:04:06;;;;;;;0.90;0.90;;;18.40;63.10;;;;;;5002829;28;20022;-73
2021/12/18 10:06:43;;;;;;;1.30;1.00;;;18.40;63.10;;;;;;4984526;28;20046;-73
2021/12/18 10:09:10;;;;;;;1.00;0.98;;;18.40;63.10;;;;;;4987989;28;20030;-73
2021/12/18 10:11:53;;;;;;;1.35;1.10;;;18.40;63.20;;;;;;4988524;28;20010;-72
2021/12/18 10:14:30;;;;;;;1.52;1.42;;;18.40;63.20;;;;;;5001871;28;20015;-72
2021/12/18 10:16:56;;;;;;;1.48;1.38;;;18.40;63.20;;;;;;5002091;28;20019;-73
2021/12/18 10:19:25;;;;;;;1.65;1.35;;;18.40;63.20;;;;;;5006673;28;20072;-73
2021/12/18 10:22:08;;;;;;;1.30;1.20;;;18.40;63.10;;;;;;5005776;28;20052;-74
2021/12/18 10:24:35;;;;;;;1.90;1.80;;;18.40;63.00;;;;;;5004402;28;20018;-77
2021/12/18 10:27:01;;;;;;;2.13;1.95;;;18.30;63.00;;;;;;5008052;28;20030;-78
2021/12/18 10:29:35;;;;;;;1.98;1.38;;;18.40;63.10;;;;;;4996032;28;20470;-75
2021/12/18 10:32:08;;;;;;;3.08;1.75;;;18.40;63.10;;;;;;5012139;28;20030;-77
2021/12/18 10:34:33;;;;;;;1.70;1.60;;;18.50;63.20;;;;;;5012382;28;20022;-74
2021/12/18 10:37:21;;;;;;;1.63;1.52;;;18.40;63.00;;;;;;5012086;28;20399;-75
2021/12/18 10:39:50;;;;;;;1.88;1.60;;;18.50;63.10;;;;;;5012462;28;20466;-76
2021/12/18 10:42:25;;;;;;;1.70;1.60;;;18.50;63.20;;;;;;5013212;28;20396;-76
2021/12/18 10:45:05;;;;;;;1.80;1.60;;;18.50;63.20;;;;;;5013923;28;20101;-78
2021/12/18 10:47:50;;;;;;;1.52;1.42;;;18.60;63.30;;;;;;5012935;28;20476;-78
2021/12/18 10:50:16;;;;;;;1.65;1.55;;;18.60;63.20;;;;;;4995466;28;20575;-77
2021/12/18 10:52:41;;;;;;;1.70;1.60;;;18.60;63.20;;;;;;5005735;28;20044;-78
2021/12/18 10:55:07;;;;;;;1.30;1.23;;;18.60;63.20;;;;;;5002620;28;20028;-77
2021/12/18 10:57:33;;;;;;;1.05;1.05;;;18.60;63.10;;;;;;5003017;28;20030;-77
2021/12/18 10:59:59;;;;;;;1.60;1.50;;;18.70;63.20;;;;;;4997380;28;20023;-78
2021/12/18 11:02:26;;;;;;;1.60;1.50;;;18.70;63.10;;;;;;5009705;28;20022;-77
2021/12/18 11:04:52;;;;;;;1.55;1.45;;;18.70;63.10;;;;;;4984271;28;20552;-80
2021/12/18 11:07:18;;;;;;;1.23;1.20;;;18.70;63.20;;;;;;5005107;28;20194;-76
2021/12/18 11:10:10;;;;;;;1.40;1.30;;;18.70;63.10;;;;;;5011826;28;20030;-76
2021/12/18 11:15:17;;;;;;;1.67;1.58;;;18.80;63.10;;;;;;4993108;28;20033;-78
2021/12/18 11:17:42;;;;;;;1.33;1.23;;;18.80;63.10;;;;;;5002938;28;20096;-78
2021/12/18 11:20:09;;;;;;;1.40;1.30;;;18.80;63.10;;;;;;4993936;28;20022;-78
2021/12/18 11:22:34;;;;;;;1.35;1.25;;;18.90;63.20;;;;;;4988428;28;20025;-78
2021/12/18 11:25:02;;;;;;;1.38;1.27;;;18.90;63.00;;;;;;4994943;28;20017;-79
2021/12/18 11:27:28;;;;;;;1.00;1.00;;;18.90;63.00;;;;;;4995398;28;20025;-80
2021/12/18 11:29:59;;;;;;;1.30;1.20;;;18.90;63.00;;;;;;5011693;28;20032;-79
2021/12/18 11:32:29;;;;;;;1.20;1.10;;;19.00;63.10;;;;;;4998231;28;20025;-82
2021/12/18 11:34:56;;;;;;;1.15;1.10;;;19.00;63.00;;;;;;4995556;28;20028;-81
2021/12/18 11:37:23;;;;;;;1.20;1.10;;;19.00;63.10;;;;;;5011646;28;20026;-81
2021/12/18 11:39:49;;;;;;;1.30;1.20;;;19.00;63.00;;;;;;4994959;28;20011;-80
2021/12/18 11:42:15;;;;;;;1.02;1.02;;;19.00;63.00;;;;;;4994752;28;20033;-79
2021/12/18 11:44:42;;;;;;;1.13;1.08;;;19.00;62.90;;;;;;5011638;28;20034;-80
2021/12/18 11:47:35;;;;;;;1.00;1.00;;;19.10;63.00;;;;;;5002889;28;20030;-81
2021/12/18 11:50:21;;;;;;;0.85;0.85;;;19.20;62.70;;;;;;4913959;29;20078;-81
2021/12/18 11:52:59;;;;;;;1.10;1.10;;;19.10;62.90;;;;;;4919621;29;20091;-82
2021/12/18 11:55:27;;;;;;;1.00;1.00;;;19.20;62.90;;;;;;4933286;29;20036;-82
2021/12/18 11:57:58;;;;;;;1.25;1.15;;;19.10;62.90;;;;;;4922435;29;20032;-82
2021/12/18 12:00:32;;;;;;;0.87;0.87;;;19.20;62.90;;;;;;4932940;29;20116;-81
2021/12/18 12:02:58;;;;;;;1.58;1.00;;;19.20;62.90;;;;;;4939104;29;20023;-82
2021/12/18 12:05:45;;;;;;;1.35;1.25;;;19.20;63.00;;;;;;4925907;29;20082;-82
2021/12/18 12:08:37;;;;;;;1.05;1.05;;;19.30;62.60;;;;;;4917124;29;20114;-82
2021/12/18 12:11:06;;;;;;;1.02;1.02;;;19.20;62.70;;;;;;4933170;29;20040;-81
2021/12/18 12:13:52;;;;;;;0.98;0.98;;;19.20;62.90;;;;;;4932887;29;20387;-82
2021/12/18 12:16:17;;;;;;;1.00;1.00;;;19.30;62.50;;;;;;4916880;29;20036;-82
2021/12/18 12:19:16;;;;;;;1.08;1.00;;;19.20;62.70;;;;;;4913614;29;20035;-80
2021/12/18 12:21:44;;;;;;;0.73;0.73;;;19.30;62.40;;;;;;4899318;29;20470;-70
2021/12/18 12:24:10;;;;;;;0.88;0.88;;;19.30;62.60;;;;;;4932957;29;20079;-77
2021/12/18 12:26:36;;;;;;;0.90;0.90;;;19.30;62.70;;;;;;4941785;28;20108;-74
2021/12/18 12:29:02;;;;;;;1.20;1.10;;;19.30;62.70;;;;;;5011445;28;20538;-75
2021/12/18 12:31:28;;;;;;;2.05;1.95;;;19.30;62.60;;;;;;5008980;28;20026;-75
2021/12/18 12:34:23;;;;;;;3.20;3.00;;;19.30;61.90;;;;;;4998671;28;20137;-75
2021/12/18 12:36:49;;;;;;;3.95;3.65;;;19.30;60.70;;;;;;4998075;28;20030;-75
2021/12/18 12:39:15;;;;;;;4.30;4.00;;;19.10;60.70;;;;;;5014417;28;20028;-76
2021/12/18 12:41:50;;;;;;;4.85;4.45;;;19.10;60.40;;;;;;5014505;28;20104;-75
2021/12/18 12:44:29;;;;;;;4.85;4.45;;;19.00;60.00;;;;;;5013717;28;20046;-75
2021/12/18 12:47:16;;;;;;;6.97;5.18;;;18.90;59.70;;;;;;5001668;28;20033;-75
2021/12/18 12:49:46;;;;;;;6.68;5.13;;;18.90;59.30;;;;;;5005478;28;20014;-75
2021/12/18 12:52:13;;;;;;;5.80;5.30;;;18.80;59.80;;;;;;4998300;28;20052;-75
2021/12/18 12:54:48;;;;;;;6.63;5.75;;;18.70;59.20;;;;;;4981321;28;20384;-73
2021/12/18 12:57:23;;;;;;;7.30;5.20;;;18.70;59.20;;;;;;5015122;28;20508;-72
2021/12/18 13:00:18;;;;;;;6.40;5.80;;;18.70;58.80;;;;;;5010453;28;20053;-72
2021/12/18 13:03:18;;;;;;;6.78;5.53;;;18.60;58.30;;;;;;4934513;29;20557;-72
2021/12/18 13:05:46;;;;;;;5.38;4.88;;;18.60;59.10;;;;;;4924803;29;20059;-72
2021/12/18 13:08:11;;;;;;;7.78;5.00;;;18.60;59.70;;;;;;4934439;29;20138;-71
2021/12/18 13:10:38;;;;;;;6.57;4.60;;;18.60;59.80;;;;;;4902539;29;20102;-71
2021/12/18 13:13:11;;;;;;;8.27;4.25;;;18.70;59.90;;;;;;4918812;29;20087;-71
2021/12/18 13:15:59;;;;;;;9.10;3.95;;;18.80;59.70;;;;;;4918467;29;20031;-72
2021/12/18 13:18:30;;;;;;;5.25;4.30;;;18.70;59.40;;;;;;4933594;29;20028;-71
2021/12/18 13:21:23;;;;;;;6.72;4.03;;;18.70;59.50;;;;;;4918151;29;20122;-71
2021/12/18 13:23:57;;;;;;;6.53;4.82;;;18.80;58.90;;;;;;4919025;29;20502;-71
2021/12/18 13:26:28;;;;;;;7.38;4.97;;;18.70;59.20;;;;;;4918055;29;20058;-71
2021/12/18 13:28:58;;;;;;;6.60;4.57;;;18.70;59.30;;;;;;4915428;29;20035;-71
2021/12/18 13:31:26;;;;;;;6.75;4.22;;;18.70;59.20;;;;;;4934608;29;20038;-72
2021/12/18 13:33:59;;;;;;;5.43;3.97;;;18.70;59.20;;;;;;4918375;29;20054;-72
2021/12/18 13:36:36;;;;;;;5.97;3.92;;;18.70;59.20;;;;;;4934272;29;20155;-72